Time;durP1;ratioP1;P1;durP2;ratioP2;P2;SDS_P1;SDS_P2;PMS_P1;PMS_P2;Temp;Humidity;BMP_temperature;BMP_pressure;BME280_temperature;BME280_humidity;BME280_pressure;Samples;Min_cycle;Max_cycle;Signal;HPM_P1;HPM_P2
2022/11/29 00:02:07;;;;;;;0.00;0.00;;;;;;;3.20;100.00;100252.47;6243808;22;20019;-77
2022/11/29 00:04:36;;;;;;;0.10;0.10;;;;;;;3.19;100.00;100238.13;6269660;22;20012;-76
2022/11/29 00:07:01;;;;;;;0.00;0.00;;;;;;;3.33;100.00;100255.06;6267175;22;20011;-74
2022/11/29 00:09:27;;;;;;;0.00;0.00;;;;;;;3.24;100.00;100235.63;6269360;22;20011;-76
2022/11/29 00:14:36;;;;;;;0.00;0.00;;;;;;;3.21;100.00;100265.75;6246301;22;20093;-74
2022/11/29 00:17:03;;;;;;;0.10;0.10;;;;;;;3.08;100.00;100279.38;6244817;22;20434;-74
2022/11/29 00:19:33;;;;;;;0.00;0.00;;;;;;;3.04;100.00;100283.56;6245059;22;20012;-74
2022/11/29 00:21:59;;;;;;;0.00;0.00;;;;;;;2.96;100.00;100279.28;6270748;22;20125;-75
2022/11/29 00:24:25;;;;;;;0.00;0.00;;;;;;;2.89;100.00;100284.75;6242653;22;20057;-75
2022/11/29 00:26:53;;;;;;;0.00;0.00;;;;;;;2.81;100.00;100284.19;6220138;22;20088;-75
2022/11/29 00:29:18;;;;;;;0.00;0.00;;;;;;;2.83;100.00;100280.19;6272897;22;20004;-74
2022/11/29 00:31:44;;;;;;;0.00;0.00;;;;;;;2.81;100.00;100285.00;6245298;22;20059;-75
2022/11/29 00:34:11;;;;;;;0.00;0.00;;;;;;;2.67;100.00;100278.84;6272691;22;20018;-73
2022/11/29 00:36:37;;;;;;;0.00;0.00;;;;;;;2.73;100.00;100293.34;6243837;22;20030;-74
2022/11/29 00:39:04;;;;;;;0.00;0.00;;;;;;;2.69;100.00;100297.53;6271153;22;20398;-75
2022/11/29 00:41:30;;;;;;;0.00;0.00;;;;;;;2.58;100.00;100301.75;6266489;22;19995;-75
2022/11/29 00:43:55;;;;;;;0.10;0.10;;;;;;;2.58;100.00;100297.16;6248460;22;20014;-76
2022/11/29 00:46:21;;;;;;;0.00;0.00;;;;;;;2.50;100.00;100294.72;6270547;22;20517;-76
2022/11/29 00:48:46;;;;;;;0.00;0.00;;;;;;;2.49;100.00;100297.66;6246440;22;20017;-75
2022/11/29 00:51:12;;;;;;;0.10;0.10;;;;;;;2.44;100.00;100295.59;6272419;22;20004;-76
2022/11/29 00:53:38;;;;;;;0.10;0.10;;;;;;;2.43;100.00;100288.53;6270611;22;20007;-76
2022/11/29 00:56:04;;;;;;;0.08;0.08;;;;;;;2.59;100.00;100304.22;6272393;22;20084;-75
2022/11/29 00:58:30;;;;;;;0.00;0.00;;;;;;;2.68;100.00;100295.88;6270857;22;20003;-77
2022/11/29 01:00:56;;;;;;;0.00;0.00;;;;;;;2.81;100.00;100306.59;6245204;22;20019;-77
2022/11/29 01:03:22;;;;;;;0.00;0.00;;;;;;;2.76;100.00;100311.81;6245213;22;20034;-76
2022/11/29 01:05:48;;;;;;;0.00;0.00;;;;;;;2.64;100.00;100308.16;6272755;22;20422;-75
2022/11/29 01:08:14;;;;;;;0.00;0.00;;;;;;;2.51;100.00;100318.00;6273072;22;20011;-75
2022/11/29 01:10:40;;;;;;;0.00;0.00;;;;;;;2.37;100.00;100308.31;6268726;22;20046;-76
2022/11/29 01:13:06;;;;;;;0.00;0.00;;;;;;;2.27;100.00;100312.25;6249686;22;20008;-75
2022/11/29 01:15:34;;;;;;;0.10;0.10;;;;;;;2.13;100.00;100310.66;6244925;22;20548;-77
2022/11/29 01:17:59;;;;;;;0.00;0.00;;;;;;;2.32;100.00;100325.13;6274553;22;20019;-75
2022/11/29 01:20:25;;;;;;;0.00;0.00;;;;;;;2.41;100.00;100320.28;6242955;22;20465;-76
2022/11/29 01:22:53;;;;;;;0.08;0.08;;;;;;;2.47;100.00;100316.75;6247412;22;20008;-75
2022/11/29 01:25:19;;;;;;;0.00;0.00;;;;;;;2.95;100.00;100318.97;6245594;22;20058;-76
2022/11/29 01:27:45;;;;;;;0.00;0.00;;;;;;;3.44;100.00;100337.31;6245016;22;20338;-75
2022/11/29 01:30:11;;;;;;;0.00;0.00;;;;;;;3.71;100.00;100331.66;6247900;22;20373;-75
2022/11/29 01:32:37;;;;;;;0.00;0.00;;;;;;;3.91;100.00;100343.09;6274765;22;20075;-75
2022/11/29 01:35:03;;;;;;;0.10;0.10;;;;;;;4.15;100.00;100343.28;6271073;22;20006;-74
2022/11/29 01:37:29;;;;;;;0.10;0.10;;;;;;;4.26;100.00;100350.63;6273246;22;20014;-75
2022/11/29 01:39:54;;;;;;;0.03;0.03;;;;;;;4.43;100.00;100355.47;6223145;22;20373;-75
2022/11/29 01:42:20;;;;;;;0.00;0.00;;;;;;;4.51;100.00;100357.84;6250384;22;20010;-74
2022/11/29 01:44:48;;;;;;;0.00;0.00;;;;;;;4.47;100.00;100368.31;6268486;22;20049;-76
2022/11/29 01:47:16;;;;;;;0.10;0.10;;;;;;;4.44;100.00;100367.91;6270530;22;20003;-75
2022/11/29 01:49:44;;;;;;;0.00;0.00;;;;;;;4.46;100.00;100363.13;6241349;22;20008;-75
2022/11/29 01:52:27;;;;;;;0.00;0.00;;;;;;;4.58;100.00;100358.59;6273405;22;20004;-75
2022/11/29 01:54:57;;;;;;;0.00;0.00;;;;;;;4.63;100.00;100366.88;6268681;22;20049;-75
2022/11/29 01:57:23;;;;;;;0.00;0.00;;;;;;;4.55;100.00;100375.28;6265932;22;19999;-75
2022/11/29 01:59:51;;;;;;;0.10;0.10;;;;;;;4.48;100.00;100374.53;6270531;22;20011;-75
2022/11/29 02:02:23;;;;;;;0.00;0.00;;;;;;;4.40;100.00;100372.97;6268127;22;20012;-76
2022/11/29 02:04:49;;;;;;;0.10;0.10;;;;;;;4.47;100.00;100383.75;6267690;22;20386;-75
2022/11/29 02:07:17;;;;;;;0.00;0.00;;;;;;;4.47;100.00;100373.72;6243297;22;20027;-76
2022/11/29 02:09:43;;;;;;;0.00;0.00;;;;;;;4.48;100.00;100369.97;6244475;22;20310;-76
2022/11/29 02:12:27;;;;;;;0.10;0.10;;;;;;;4.60;100.00;100378.16;6269393;22;20004;-76
2022/11/29 02:15:07;;;;;;;0.10;0.10;;;;;;;4.64;100.00;100379.34;6269796;22;20047;-76
2022/11/29 02:18:01;;;;;;;0.00;0.00;;;;;;;4.79;100.00;100388.94;6269141;22;20023;-76
2022/11/29 02:20:39;;;;;;;0.00;0.00;;;;;;;4.95;100.00;100395.63;6264572;22;20034;-77
2022/11/29 02:23:40;;;;;;;0.00;0.00;;;;;;;5.01;100.00;100390.13;6268948;22;20330;-74
2022/11/29 02:26:21;;;;;;;0.00;0.00;;;;;;;5.10;100.00;100400.66;6268717;22;20086;-77
2022/11/29 02:29:44;;;;;;;0.00;0.00;;;;;;;5.15;100.00;100406.19;6264964;22;20094;-79
2022/11/29 02:32:33;;;;;;;0.05;0.05;;;;;;;5.12;100.00;100407.47;6119428;23;20016;-78
2022/11/29 02:35:42;;;;;;;0.00;0.00;;;;;;;5.09;100.00;100405.22;6148387;23;20033;-78
2022/11/29 02:38:19;;;;;;;0.03;0.03;;;;;;;5.07;100.00;100405.44;6270677;22;20077;-80
2022/11/29 02:40:53;;;;;;;0.10;0.10;;;;;;;5.04;100.00;100408.63;6268832;22;20031;-80
2022/11/29 02:43:46;;;;;;;0.10;0.10;;;;;;;5.05;100.00;100413.00;6270063;22;20057;-79
2022/11/29 02:46:57;;;;;;;0.00;0.00;;;;;;;5.03;100.00;100419.69;6266315;22;20740;-80
2022/11/29 02:49:58;;;;;;;0.03;0.03;;;;;;;5.03;100.00;100431.34;6271316;22;20479;-79
2022/11/29 02:52:38;;;;;;;0.10;0.10;;;;;;;5.04;100.00;100426.78;6265635;22;20000;-79
2022/11/29 02:55:12;;;;;;;0.00;0.00;;;;;;;5.00;100.00;100414.75;6270401;22;20015;-78
2022/11/29 02:57:41;;;;;;;0.00;0.00;;;;;;;4.97;100.00;100413.31;6268502;22;19996;-78
2022/11/29 03:00:12;;;;;;;0.00;0.00;;;;;;;5.01;100.00;100417.22;6268575;22;20015;-78
2022/11/29 03:03:11;;;;;;;0.00;0.00;;;;;;;5.09;100.00;100434.22;6259436;22;20023;-76
2022/11/29 03:05:36;;;;;;;0.10;0.10;;;;;;;5.05;100.00;100434.69;6271549;22;20007;-76
2022/11/29 03:08:12;;;;;;;0.00;0.00;;;;;;;5.02;100.00;100439.72;6265484;22;20015;-76
2022/11/29 03:10:47;;;;;;;0.00;0.00;;;;;;;5.02;100.00;100446.00;6269173;22;20004;-76
2022/11/29 03:13:58;;;;;;;0.00;0.00;;;;;;;4.96;100.00;100452.28;6265590;22;20008;-75
2022/11/29 03:16:50;;;;;;;0.00;0.00;;;;;;;4.94;100.00;100448.19;6249856;22;20133;-74
2022/11/29 03:19:28;;;;;;;0.00;0.00;;;;;;;4.94;100.00;100454.41;6270852;22;20004;-75
2022/11/29 03:22:29;;;;;;;0.00;0.00;;;;;;;4.93;100.00;100452.75;6264915;22;20394;-75
2022/11/29 03:25:42;;;;;;;0.00;0.00;;;;;;;4.97;100.00;100458.56;6259587;22;20004;-74
2022/11/29 03:28:20;;;;;;;0.00;0.00;;;;;;;4.91;100.00;100452.16;6243775;22;20767;-74
2022/11/29 03:31:05;;;;;;;0.00;0.00;;;;;;;4.88;100.00;100455.34;6267093;22;20338;-75
2022/11/29 03:33:47;;;;;;;0.10;0.10;;;;;;;4.88;100.00;100468.88;6268188;22;20031;-74
2022/11/29 03:36:21;;;;;;;0.00;0.00;;;;;;;4.91;100.00;100465.72;6265225;22;20014;-76
2022/11/29 03:38:46;;;;;;;;;;;;;;;4.90;100.00;100469.47;6265177;22;20030;-76
2022/11/29 03:41:21;;;;;;;0.00;0.00;;;;;;;4.81;100.00;100466.25;6267540;22;20634;-76
2022/11/29 03:44:07;;;;;;;0.00;0.00;;;;;;;4.91;100.00;100476.56;6264949;22;20050;-78
2022/11/29 03:46:56;;;;;;;0.00;0.00;;;;;;;4.97;100.00;100485.66;6271058;22;20330;-76
2022/11/29 03:49:27;;;;;;;0.00;0.00;;;;;;;4.94;100.00;100486.94;6248754;22;20049;-76
2022/11/29 03:52:27;;;;;;;0.00;0.00;;;;;;;4.88;100.00;100487.84;6269207;22;20008;-76
2022/11/29 03:55:07;;;;;;;0.10;0.10;;;;;;;4.83;100.00;100493.13;6268989;22;20003;-76
2022/11/29 03:57:51;;;;;;;0.00;0.00;;;;;;;4.89;100.00;100494.91;6267169;22;19995;-75
2022/11/29 04:00:17;;;;;;;0.00;0.00;;;;;;;4.89;100.00;100492.19;6272040;22;19999;-75
2022/11/29 04:03:05;;;;;;;0.03;0.03;;;;;;;4.86;100.00;100500.78;6240249;22;20042;-76
2022/11/29 04:05:49;;;;;;;0.00;0.00;;;;;;;4.77;100.00;100497.56;6269253;22;20004;-75
2022/11/29 04:08:33;;;;;;;0.00;0.00;;;;;;;4.77;100.00;100497.56;6268159;22;20110;-75
2022/11/29 04:11:53;;;;;;;0.00;0.00;;;;;;;4.81;100.00;100495.22;6268182;22;20808;-74
2022/11/29 04:14:37;;;;;;;0.00;0.00;;;;;;;4.77;100.00;100507.56;6271848;22;20004;-74
2022/11/29 04:17:36;;;;;;;0.00;0.00;;;;;;;4.77;100.00;100513.00;6272070;22;20109;-75
2022/11/29 04:20:23;;;;;;;0.00;0.00;;;;;;;4.83;100.00;100520.22;6267677;22;20422;-74
2022/11/29 04:23:07;;;;;;;0.03;0.03;;;;;;;4.82;100.00;100515.84;6270097;22;20106;-75
2022/11/29 04:26:10;;;;;;;0.00;0.00;;;;;;;4.83;100.00;100517.50;6267425;22;20057;-76
2022/11/29 04:29:01;;;;;;;0.00;0.00;;;;;;;4.84;100.00;100519.16;6266580;22;20449;-77
2022/11/29 04:31:51;;;;;;;0.00;0.00;;;;;;;4.84;100.00;100519.97;6272972;22;20085;-78
2022/11/29 04:34:32;;;;;;;0.00;0.00;;;;;;;4.80;100.00;100515.25;6270425;22;20007;-76
2022/11/29 04:37:43;;;;;;;0.00;0.00;;;;;;;4.71;100.00;100520.94;6268963;22;20003;-75
2022/11/29 04:40:27;;;;;;;0.00;0.00;;;;;;;4.78;100.00;100515.47;6263937;22;20079;-78
2022/11/29 04:43:06;;;;;;;0.00;0.00;;;;;;;4.82;100.00;100534.81;6245580;22;20007;-77
2022/11/29 04:45:56;;;;;;;0.10;0.10;;;;;;;4.89;100.00;100532.84;6249679;22;20003;-78
2022/11/29 04:48:51;;;;;;;0.00;0.00;;;;;;;4.81;100.00;100531.28;6247557;22;20365;-78
2022/11/29 04:51:27;;;;;;;0.00;0.00;;;;;;;4.76;100.00;100538.41;6112876;22;20039;-78
2022/11/29 04:54:04;;;;;;;0.05;0.05;;;;;;;4.74;100.00;100545.97;6245839;22;20003;-78
2022/11/29 04:57:26;;;;;;;0.00;0.00;;;;;;;4.72;100.00;100544.28;6249675;22;19999;-80
2022/11/29 04:59:57;;;;;;;0.00;0.00;;;;;;;4.64;100.00;100544.56;6238848;22;20000;-77
2022/11/29 05:02:35;;;;;;;0.00;0.00;;;;;;;4.63;100.00;100555.63;6272654;22;20071;-77
2022/11/29 05:05:16;;;;;;;0.00;0.00;;;;;;;4.60;100.00;100562.34;6245632;22;20026;-78
2022/11/29 05:07:54;;;;;;;0.00;0.00;;;;;;;4.59;100.00;100557.16;6240585;22;20437;-78
2022/11/29 05:10:45;;;;;;;0.00;0.00;;;;;;;4.54;100.00;100564.06;6246235;22;20004;-77
2022/11/29 05:13:43;;;;;;;0.00;0.00;;;;;;;4.61;100.00;100579.41;6245979;22;20015;-78
2022/11/29 05:16:35;;;;;;;0.00;0.00;;;;;;;4.53;100.00;100562.41;6240266;22;20090;-80
2022/11/29 05:19:01;;;;;;;0.00;0.00;;;;;;;4.64;100.00;100579.78;6244784;22;20011;-79
2022/11/29 05:21:29;;;;;;;0.00;0.00;;;;;;;4.70;100.00;100589.75;6247226;22;20004;-76
2022/11/29 05:24:39;;;;;;;0.00;0.00;;;;;;;4.76;100.00;100592.59;6241031;22;20006;-76
2022/11/29 05:27:34;;;;;;;0.00;0.00;;;;;;;4.78;100.00;100601.34;6114779;23;20016;-74
2022/11/29 05:30:12;;;;;;;0.00;0.00;;;;;;;4.74;100.00;100602.84;6119248;23;20318;-74
2022/11/29 05:32:43;;;;;;;0.10;0.10;;;;;;;4.72;100.00;100609.31;6233869;22;20418;-75
2022/11/29 05:35:47;;;;;;;0.00;0.00;;;;;;;4.71;100.00;100607.63;6246036;22;20006;-74
2022/11/29 05:38:27;;;;;;;0.00;0.00;;;;;;;4.66;100.00;100607.50;6219013;22;20003;-75
2022/11/29 05:41:04;;;;;;;0.00;0.00;;;;;;;4.66;100.00;100599.38;6240531;22;20326;-74
2022/11/29 05:43:51;;;;;;;0.00;0.00;;;;;;;4.74;100.00;100605.56;6271708;22;20008;-75
2022/11/29 05:46:34;;;;;;;0.10;0.10;;;;;;;4.90;100.00;100608.50;6244222;22;20008;-75
2022/11/29 05:49:06;;;;;;;0.00;0.00;;;;;;;5.01;100.00;100609.66;6239906;22;20386;-75
2022/11/29 05:51:45;;;;;;;0.10;0.10;;;;;;;5.10;100.00;100614.78;6245017;22;20006;-74
2022/11/29 05:54:49;;;;;;;0.00;0.00;;;;;;;5.15;100.00;100617.66;6266450;22;20409;-75
2022/11/29 05:57:29;;;;;;;0.00;0.00;;;;;;;5.11;100.00;100611.84;6092720;23;20002;-76
2022/11/29 05:59:57;;;;;;;0.00;0.00;;;;;;;5.08;100.00;100598.72;6230433;22;20030;-75
2022/11/29 06:02:26;;;;;;;0.00;0.00;;;;;;;5.14;100.00;100607.84;6220138;22;20008;-76
2022/11/29 06:05:05;;;;;;;0.00;0.00;;;;;;;5.13;100.00;100617.88;6241688;22;20427;-76
2022/11/29 06:07:47;;;;;;;0.00;0.00;;;;;;;5.04;100.00;100611.09;6243353;22;20026;-75
2022/11/29 06:10:23;;;;;;;0.00;0.00;;;;;;;5.02;100.00;100622.16;6270564;22;20004;-75
2022/11/29 06:13:26;;;;;;;0.00;0.00;;;;;;;5.00;100.00;100621.53;6244049;22;20007;-77
2022/11/29 06:16:17;;;;;;;0.00;0.00;;;;;;;4.95;100.00;100624.13;6243224;22;20039;-75
2022/11/29 06:18:59;;;;;;;0.03;0.03;;;;;;;4.82;100.00;100608.81;6240847;22;20004;-74
2022/11/29 06:21:39;;;;;;;0.00;0.00;;;;;;;4.83;100.00;100625.88;6243053;22;20082;-77
2022/11/29 06:24:35;;;;;;;0.00;0.00;;;;;;;4.74;100.00;100628.06;6273587;22;20006;-75
2022/11/29 06:27:22;;;;;;;0.00;0.00;;;;;;;4.74;100.00;100633.47;6242815;22;20006;-74
2022/11/29 06:29:59;;;;;;;0.00;0.00;;;;;;;4.66;100.00;100631.06;6241083;22;20015;-74
2022/11/29 06:33:00;;;;;;;0.00;0.00;;;;;;;4.62;100.00;100640.66;6269920;22;20007;-74
2022/11/29 06:36:07;;;;;;;0.00;0.00;;;;;;;4.71;100.00;100656.41;6243134;22;20000;-74
2022/11/29 06:38:33;;;;;;;0.00;0.00;;;;;;;4.74;100.00;100663.28;6189214;22;20046;-75
2022/11/29 06:40:59;;;;;;;0.10;0.10;;;;;;;4.78;100.00;100666.38;6180656;23;20381;-75
2022/11/29 06:43:25;;;;;;;0.10;0.10;;;;;;;4.78;100.00;100661.78;6184170;23;20078;-75
2022/11/29 06:45:57;;;;;;;0.00;0.00;;;;;;;4.83;100.00;100670.09;6213460;23;20007;-75
2022/11/29 06:48:25;;;;;;;0.00;0.00;;;;;;;4.85;100.00;100675.28;6208298;23;20038;-75
2022/11/29 06:51:07;;;;;;;0.00;0.00;;;;;;;4.77;100.00;100670.13;6213159;23;20000;-76
2022/11/29 06:53:38;;;;;;;0.00;0.00;;;;;;;4.97;100.00;100675.38;6208544;23;20099;-76
2022/11/29 06:56:15;;;;;;;0.00;0.00;;;;;;;5.02;100.00;100679.09;6241541;23;20054;-77
2022/11/29 06:59:06;;;;;;;0.08;0.08;;;;;;;5.03;100.00;100669.88;6208521;23;20036;-74
2022/11/29 07:01:50;;;;;;;0.10;0.10;;;;;;;5.00;100.00;100675.75;6237884;22;20458;-74
2022/11/29 07:04:30;;;;;;;0.00;0.00;;;;;;;4.96;100.00;100679.97;6239149;23;20008;-75
2022/11/29 07:06:56;;;;;;;0.00;0.00;;;;;;;4.90;100.00;100676.25;6210674;23;20086;-76
2022/11/29 07:09:26;;;;;;;0.00;0.00;;;;;;;4.99;100.00;100681.41;6239400;23;20394;-77
2022/11/29 07:11:52;;;;;;;0.00;0.00;;;;;;;5.05;100.00;100678.63;6211321;23;20038;-78
2022/11/29 07:14:18;;;;;;;0.00;0.00;;;;;;;5.01;100.00;100654.91;6213466;23;20012;-77
2022/11/29 07:17:02;;;;;;;0.00;0.00;;;;;;;5.00;100.00;100675.75;6187318;23;20064;-77
2022/11/29 07:19:58;;;;;;;0.10;0.10;;;;;;;4.89;100.00;100684.59;6238682;23;20086;-77
2022/11/29 07:22:45;;;;;;;0.00;0.00;;;;;;;4.83;100.00;100688.22;6237131;23;20004;-79
2022/11/29 07:25:30;;;;;;;0.00;0.00;;;;;;;4.75;100.00;100699.34;6238882;22;20008;-78
2022/11/29 07:28:01;;;;;;;0.00;0.00;;;;;;;4.67;100.00;100686.88;6241326;23;20000;-78
2022/11/29 07:30:52;;;;;;;0.00;0.00;;;;;;;4.57;100.00;100703.63;6234855;22;20095;-82
2022/11/29 07:33:23;;;;;;;0.00;0.00;;;;;;;4.50;100.00;100705.56;6215793;23;20008;-79
2022/11/29 07:36:10;;;;;;;0.00;0.00;;;;;;;4.40;100.00;100702.50;6209791;23;20008;-79
2022/11/29 07:38:56;;;;;;;0.00;0.00;;;;;;;4.42;100.00;100711.22;6213147;23;20008;-80
2022/11/29 07:41:59;;;;;;;0.00;0.00;;;;;;;4.37;100.00;100707.28;6215431;23;20016;-81
2022/11/29 07:44:45;;;;;;;0.00;0.00;;;;;;;4.25;100.00;100700.91;6210604;23;20016;-80
2022/11/29 07:47:13;;;;;;;0.10;0.10;;;;;;;4.29;100.00;100718.41;6210874;23;20047;-81
2022/11/29 07:49:41;;;;;;;0.00;0.00;;;;;;;4.29;100.00;100704.88;6214950;23;20034;-78
2022/11/29 07:52:11;;;;;;;0.00;0.00;;;;;;;4.33;100.00;100719.59;6216241;23;20019;-80
2022/11/29 07:54:38;;;;;;;0.00;0.00;;;;;;;4.31;100.00;100727.13;6189575;23;20008;-79
2022/11/29 07:57:03;;;;;;;0.00;0.00;;;;;;;4.27;100.00;100736.72;6213845;23;20091;-80
2022/11/29 07:59:46;;;;;;;0.00;0.00;;;;;;;4.19;100.00;100739.66;6180000;23;20039;-83
2022/11/29 08:02:12;;;;;;;0.00;0.00;;;;;;;4.24;100.00;100753.41;6210797;23;20250;-83
2022/11/29 08:04:58;;;;;;;0.00;0.00;;;;;;;4.15;100.00;100749.28;6157082;23;20026;-81
2022/11/29 08:07:23;;;;;;;0.00;0.00;;;;;;;4.24;100.00;100764.22;6208258;23;20658;-82
2022/11/29 08:09:49;;;;;;;0.00;0.00;;;;;;;4.20;100.00;100763.00;6184178;23;20090;-81
2022/11/29 08:12:24;;;;;;;0.00;0.00;;;;;;;4.24;100.00;100763.41;6238405;23;20011;-83
2022/11/29 08:14:59;;;;;;;;;;;;;;;;;;;;;
2022/11/29 08:17:25;;;;;;;0.10;0.10;;;;;;;4.29;100.00;100761.72;6222160;23;20079;-84
2022/11/29 08:19:51;;;;;;;0.10;0.10;;;;;;;4.36;100.00;100754.34;6172519;23;20012;-83
2022/11/29 08:22:17;;;;;;;0.10;0.10;;;;;;;4.42;100.00;100751.84;6228478;23;20038;-84
2022/11/29 08:24:43;;;;;;;0.10;0.10;;;;;;;4.50;100.00;100759.72;6222743;23;20035;-84
2022/11/29 08:27:26;;;;;;;;;;;;;;;;;;;;;
2022/11/29 08:29:52;;;;;;;0.00;0.00;;;;;;;4.63;100.00;100762.34;6247872;23;20103;-84
2022/11/29 08:32:27;;;;;;;;;;;;;;;;;;;;;
2022/11/29 08:34:53;;;;;;;0.00;0.00;;;;;;;4.68;100.00;100769.81;6247933;23;20083;-84
2022/11/29 08:37:24;;;;;;;0.00;0.00;;;;;;;4.77;100.00;100764.97;6219727;23;20000;-84
2022/11/29 08:39:54;;;;;;;0.00;0.00;;;;;;;4.89;100.00;100765.91;6224147;23;20094;-83
2022/11/29 08:42:20;;;;;;;0.00;0.00;;;;;;;5.03;100.00;100775.59;6218290;23;20761;-84
2022/11/29 08:45:19;;;;;;;;;;;;;;;;;;;;;
2022/11/29 08:47:47;;;;;;;0.05;0.05;;;;;;;5.24;100.00;100776.25;6237295;23;20478;-84
2022/11/29 08:50:21;;;;;;;0.10;0.10;;;;;;;5.22;100.00;100764.81;6222289;23;20011;-84
2022/11/29 08:55:35;;;;;;;0.00;0.00;;;;;;;5.57;100.00;100761.56;6248787;23;20015;-85
2022/11/29 08:58:14;;;;;;;0.00;0.00;;;;;;;5.64;100.00;100759.63;6219726;23;20007;-82
2022/11/29 09:00:42;;;;;;;0.00;0.00;;;;;;;5.58;100.00;100753.19;6223294;23;20004;-83
2022/11/29 09:05:52;;;;;;;0.00;0.00;;;;;;;5.67;100.00;100761.06;6248379;23;20062;-84
2022/11/29 09:08:18;;;;;;;0.00;0.00;;;;;;;5.63;100.00;100751.69;6223467;23;20000;-83
2022/11/29 09:10:52;;;;;;;0.00;0.00;;;;;;;5.66;100.00;100749.34;6223868;23;20008;-85
2022/11/29 09:13:19;;;;;;;0.00;0.00;;;;;;;5.64;100.00;100746.03;6223823;23;20026;-83
2022/11/29 09:15:55;;;;;;;;;;;;;;;;;;;;;
2022/11/29 09:18:27;;;;;;;0.00;0.00;;;;;;;5.83;100.00;100763.16;6249631;22;20020;-84
2022/11/29 09:20:53;;;;;;;0.00;0.00;;;;;;;6.01;100.00;100778.63;6199480;23;20012;-84
2022/11/29 09:23:21;;;;;;;0.00;0.00;;;;;;;6.20;100.00;100795.75;6224257;23;20008;-84
2022/11/29 09:25:47;;;;;;;0.00;0.00;;;;;;;6.27;100.00;100776.66;6198697;23;20007;-84
2022/11/29 09:28:20;;;;;;;0.00;0.00;;;;;;;6.43;100.00;100786.88;6222326;23;19996;-84
2022/11/29 09:31:01;;;;;;;;;;;;;;;;;;;;;
2022/11/29 09:33:32;;;;;;;0.00;0.00;;;;;;;6.34;100.00;100788.28;6250509;23;20090;-84
2022/11/29 09:36:35;;;;;;;;;;;;;;;;;;;;;
2022/11/29 09:39:01;;;;;;;0.00;0.00;;;;;;;6.41;100.00;100810.75;6247766;23;20099;-84
2022/11/29 09:41:54;;;;;;;0.08;0.08;;;;;;;6.49;100.00;100828.63;6220585;22;20346;-85
2022/11/29 09:44:24;;;;;;;0.00;0.00;;;;;;;6.46;100.00;100808.16;6220094;23;20019;-83
2022/11/29 09:46:53;;;;;;;0.00;0.00;;;;;;;6.57;100.00;100816.59;6220748;23;20011;-84
2022/11/29 09:49:48;;;;;;;0.00;0.00;;;;;;;6.69;100.00;100820.19;6221508;23;20019;-84
2022/11/29 09:52:26;;;;;;;0.00;0.00;;;;;;;6.81;100.00;100815.63;6222434;23;20000;-83
2022/11/29 09:54:59;;;;;;;0.00;0.00;;;;;;;6.88;100.00;100820.13;6222481;23;20008;-83
2022/11/29 09:57:30;;;;;;;0.00;0.00;;;;;;;6.87;100.00;100818.50;6224464;23;20000;-84
2022/11/29 10:00:05;;;;;;;0.00;0.00;;;;;;;7.02;100.00;100827.03;6219179;23;20011;-83
2022/11/29 10:03:12;;;;;;;0.10;0.10;;;;;;;7.07;100.00;100819.00;6218580;23;19996;-85
2022/11/29 10:05:46;;;;;;;0.00;0.00;;;;;;;7.12;100.00;100819.13;6220702;23;20004;-84
2022/11/29 10:08:22;;;;;;;0.00;0.00;;;;;;;7.33;100.00;100833.25;6220060;23;20004;-84
2022/11/29 10:11:04;;;;;;;;;;;;;;;;;;;;;
2022/11/29 10:13:44;;;;;;;;;;;;;;;;;;;;;
2022/11/29 10:17:18;;;;;;;0.00;0.00;;;;;;;7.71;100.00;100828.41;6241278;23;20026;-83
2022/11/29 10:19:46;;;;;;;0.00;0.00;;;;;;;7.76;100.00;100825.81;6232373;23;20011;-82
2022/11/29 10:23:15;;;;;;;;;;;;;;;;;;;;;
2022/11/29 10:26:09;;;;;;;;;;;;;;;;;;;;;
2022/11/29 10:28:54;;;;;;;;;;;;;;;;;;;;;
2022/11/29 10:31:41;;;;;;;;;;;;;;;;;;;;;
2022/11/29 10:34:46;;;;;;;0.00;0.00;;;;;;;7.57;100.00;100833.28;6250150;23;20034;-83
2022/11/29 10:37:16;;;;;;;0.03;0.03;;;;;;;7.60;100.00;100849.94;6218282;23;20083;-84
2022/11/29 10:39:58;;;;;;;0.00;0.00;;;;;;;7.65;100.00;100860.13;6222240;23;20028;-83
2022/11/29 10:45:33;;;;;;;0.08;0.08;;;;;;;7.47;100.00;100859.16;6259099;22;20061;-84
2022/11/29 10:48:10;;;;;;;0.00;0.00;;;;;;;7.38;100.00;100857.88;6251833;22;20067;-84
2022/11/29 10:50:47;;;;;;;0.08;0.08;;;;;;;7.34;100.00;100856.66;6247330;22;20038;-83
2022/11/29 10:53:20;;;;;;;0.00;0.00;;;;;;;7.41;100.00;100857.38;6247725;22;20008;-81
2022/11/29 10:55:58;;;;;;;0.00;0.00;;;;;;;7.34;100.00;100853.94;6245585;22;20091;-81
2022/11/29 10:58:26;;;;;;;0.00;0.00;;;;;;;7.38;100.00;100841.53;6275799;22;20030;-82
2022/11/29 11:00:56;;;;;;;0.00;0.00;;;;;;;7.42;100.00;100837.28;6246639;22;20007;-82
2022/11/29 11:03:49;;;;;;;0.00;0.00;;;;;;;7.45;100.00;100844.97;6251044;22;20323;-81
2022/11/29 11:06:27;;;;;;;0.10;0.10;;;;;;;7.44;100.00;100846.03;6256979;22;20042;-82
2022/11/29 11:09:12;;;;;;;0.00;0.00;;;;;;;7.44;100.00;100835.16;6251002;22;20315;-82
2022/11/29 11:11:38;;;;;;;0.00;0.00;;;;;;;7.50;100.00;100834.22;6227185;22;20365;-81
2022/11/29 11:14:18;;;;;;;0.00;0.00;;;;;;;7.57;100.00;100841.44;6264187;22;20011;-83
2022/11/29 11:16:46;;;;;;;0.00;0.00;;;;;;;7.56;100.00;100842.50;6271210;22;20505;-82
2022/11/29 11:19:33;;;;;;;0.00;0.00;;;;;;;7.52;100.00;100836.72;6244959;22;20011;-83
2022/11/29 11:22:03;;;;;;;0.00;0.00;;;;;;;7.58;100.00;100830.31;6262445;22;20069;-81
2022/11/29 11:24:31;;;;;;;0.00;0.00;;;;;;;7.65;100.00;100831.03;6224556;22;20003;-82
2022/11/29 11:26:58;;;;;;;0.00;0.00;;;;;;;7.71;100.00;100823.81;6244511;22;20011;-82
2022/11/29 11:29:34;;;;;;;0.10;0.10;;;;;;;7.77;100.00;100831.03;6222448;22;20011;-83
2022/11/29 11:32:00;;;;;;;0.00;0.00;;;;;;;7.82;100.00;100842.03;6244664;22;20374;-83
2022/11/29 11:34:36;;;;;;;0.00;0.00;;;;;;;7.83;100.00;100853.75;6220798;22;20081;-81
2022/11/29 11:37:17;;;;;;;0.00;0.00;;;;;;;7.83;100.00;100848.31;6243288;22;20011;-83
2022/11/29 11:39:44;;;;;;;0.00;0.00;;;;;;;7.81;100.00;100834.94;6247496;22;20008;-83
2022/11/29 11:42:38;;;;;;;0.00;0.00;;;;;;;7.91;100.00;100838.94;6243162;22;20008;-83
2022/11/29 11:45:09;;;;;;;0.10;0.10;;;;;;;7.85;100.00;100825.19;6253434;22;20010;-84
2022/11/29 11:47:56;;;;;;;0.00;0.00;;;;;;;7.97;100.00;100840.72;6253670;22;20007;-83
2022/11/29 11:50:30;;;;;;;0.08;0.08;;;;;;;8.03;100.00;100842.47;6247714;22;20370;-81
2022/11/29 11:53:25;;;;;;;0.10;0.10;;;;;;;7.96;100.00;100836.34;6269107;22;19999;-81
2022/11/29 11:56:00;;;;;;;0.00;0.00;;;;;;;7.92;100.00;100838.72;6266662;22;20240;-81
2022/11/29 11:58:50;;;;;;;0.00;0.00;;;;;;;7.89;100.00;100839.19;6247591;22;20084;-80
2022/11/29 12:01:29;;;;;;;0.00;0.00;;;;;;;7.91;100.00;100847.13;6239680;22;20022;-81
2022/11/29 12:04:20;;;;;;;0.08;0.08;;;;;;;7.91;100.00;100861.56;6247976;22;20031;-81
2022/11/29 12:06:56;;;;;;;0.00;0.00;;;;;;;7.84;100.00;100861.69;6238812;22;20472;-79
2022/11/29 12:09:46;;;;;;;0.00;0.00;;;;;;;7.76;100.00;100853.88;6245896;22;20008;-80
2022/11/29 12:12:50;;;;;;;0.00;0.00;;;;;;;7.66;100.00;100859.06;6244919;22;20047;-82
2022/11/29 12:15:39;;;;;;;0.05;0.05;;;;;;;7.66;100.00;100848.19;6276160;22;20004;-83
2022/11/29 12:18:15;;;;;;;0.00;0.00;;;;;;;7.55;100.00;100821.78;6252129;22;20426;-83
2022/11/29 12:20:56;;;;;;;0.00;0.00;;;;;;;7.61;100.00;100829.03;6249493;22;20003;-84
2022/11/29 12:23:54;;;;;;;;;;;;;;;;;;;;;
2022/11/29 12:27:02;;;;;;;0.00;0.00;;;;;;;7.71;100.00;100851.03;6275471;22;20059;-86
2022/11/29 12:29:32;;;;;;;0.00;0.00;;;;;;;7.59;100.00;100825.69;6250976;22;20019;-83
2022/11/29 12:32:31;;;;;;;0.00;0.00;;;;;;;7.75;100.00;100854.91;6248414;22;20007;-82
2022/11/29 12:35:20;;;;;;;0.00;0.00;;;;;;;7.74;100.00;100845.13;6249045;22;20426;-81
2022/11/29 12:38:24;;;;;;;0.00;0.00;;;;;;;7.61;100.00;100834.47;6244025;22;20087;-83
2022/11/29 12:41:15;;;;;;;0.00;0.00;;;;;;;7.59;100.00;100842.03;6243864;22;20019;-82
2022/11/29 12:44:41;;;;;;;;;;;;;;;;;;;;;
2022/11/29 12:47:58;;;;;;;0.00;0.00;;;;;;;7.81;100.00;100862.16;6120731;23;20081;-82
2022/11/29 12:51:03;;;;;;;0.03;0.03;;;;;;;7.81;100.00;100856.72;6069877;23;20058;-81
2022/11/29 12:54:02;;;;;;;0.00;0.00;;;;;;;7.84;100.00;100856.25;6242974;22;20327;-82